createdAt,value
2017-08-01T00:00:17.745Z,0
2017-08-01T00:00:43.926Z,0
2017-08-01T00:01:10.094Z,0
2017-08-01T00:01:36.271Z,0
2017-08-01T00:02:02.431Z,0
2017-08-01T00:02:28.606Z,0
2017-08-01T00:02:54.718Z,0
2017-08-01T00:03:20.910Z,0
2017-08-01T00:03:47.054Z,0
2017-08-01T00:04:13.189Z,0
2017-08-01T00:04:39.315Z,0
2017-08-01T00:05:05.497Z,0
2017-08-01T00:05:31.633Z,0
2017-08-01T00:05:57.779Z,0
2017-08-01T00:06:23.951Z,0
2017-08-01T00:06:50.170Z,0
2017-08-01T00:07:16.351Z,0
2017-08-01T00:07:42.460Z,0
2017-08-01T00:08:08.702Z,0
2017-08-01T00:08:34.982Z,0
2017-08-01T00:09:01.174Z,0
2017-08-01T00:09:27.326Z,0
2017-08-01T00:09:53.551Z,0
2017-08-01T00:10:19.712Z,0
2017-08-01T00:10:45.881Z,0
2017-08-01T00:11:12.067Z,0
2017-08-01T00:11:38.208Z,0
2017-08-01T00:12:04.330Z,0
2017-08-01T00:12:30.525Z,0
2017-08-01T00:12:56.678Z,0
2017-08-01T00:13:22.868Z,0
2017-08-01T00:13:49.084Z,0
2017-08-01T00:14:15.263Z,0
2017-08-01T00:14:41.386Z,0
2017-08-01T00:15:07.542Z,0
2017-08-01T00:15:33.727Z,0
2017-08-01T00:15:59.885Z,0
2017-08-01T00:16:26.062Z,0
2017-08-01T00:16:52.175Z,0
2017-08-01T00:17:18.325Z,0
2017-08-01T00:17:44.445Z,0
2017-08-01T00:18:10.572Z,0
2017-08-01T00:18:36.765Z,0
2017-08-01T00:19:02.906Z,0
2017-08-01T00:19:29.101Z,0
2017-08-01T00:19:55.276Z,0
2017-08-01T00:20:21.411Z,0
2017-08-01T00:20:47.604Z,0
2017-08-01T00:21:13.779Z,0
2017-08-01T00:21:39.890Z,0
2017-08-01T00:22:06.069Z,0
2017-08-01T00:22:32.220Z,0
2017-08-01T00:22:58.337Z,0
2017-08-01T00:23:24.515Z,0
2017-08-01T00:23:50.678Z,0
2017-08-01T00:24:16.841Z,0
2017-08-01T00:24:43.019Z,0
2017-08-01T00:25:09.155Z,0
2017-08-01T00:25:35.338Z,0
2017-08-01T00:26:01.487Z,0
2017-08-01T00:26:27.626Z,0
2017-08-01T00:26:53.776Z,0
2017-08-01T00:27:19.907Z,0
2017-08-01T00:27:46.038Z,0
2017-08-01T00:28:12.218Z,0
2017-08-01T00:28:38.374Z,0
2017-08-01T00:29:04.510Z,0
2017-08-01T00:29:30.681Z,0
2017-08-01T00:29:56.804Z,0
2017-08-01T00:30:22.948Z,0
2017-08-01T00:30:49.140Z,0
2017-08-01T00:31:15.335Z,0
2017-08-01T00:31:41.482Z,0
2017-08-01T00:32:07.618Z,0
2017-08-01T00:32:33.774Z,0
2017-08-01T00:32:59.896Z,0
2017-08-01T00:33:26.031Z,0
2017-08-01T00:33:52.151Z,0
2017-08-01T00:34:18.323Z,0
2017-08-01T00:34:44.478Z,0
2017-08-01T00:35:10.660Z,0
2017-08-01T00:35:36.797Z,0
2017-08-01T00:36:03.015Z,0
2017-08-01T00:36:29.164Z,0
2017-08-01T00:36:55.303Z,0
2017-08-01T00:37:21.450Z,0
2017-08-01T00:37:47.603Z,0
2017-08-01T00:38:13.708Z,0
2017-08-01T00:38:39.888Z,0
2017-08-01T00:39:06.043Z,0
2017-08-01T00:39:32.175Z,0
2017-08-01T00:39:58.324Z,0
2017-08-01T00:40:24.465Z,0
2017-08-01T00:40:50.680Z,0
2017-08-01T00:41:16.835Z,0
2017-08-01T00:41:42.999Z,0
2017-08-01T00:42:09.114Z,0
2017-08-01T00:42:35.304Z,0
2017-08-01T00:43:01.481Z,0
2017-08-01T00:43:27.655Z,0
2017-08-01T00:43:53.811Z,0
2017-08-01T00:44:19.951Z,0
2017-08-01T00:44:46.089Z,0
2017-08-01T00:45:12.267Z,0
2017-08-01T00:45:38.417Z,0
2017-08-01T00:46:04.565Z,0
2017-08-01T00:46:30.707Z,0
2017-08-01T00:46:56.902Z,0
2017-08-01T00:47:23.087Z,0
2017-08-01T00:47:49.228Z,0
2017-08-01T00:48:15.464Z,0
2017-08-01T00:48:41.607Z,0
2017-08-01T00:49:07.752Z,0
2017-08-01T00:49:33.886Z,0
2017-08-01T00:50:00.013Z,0
2017-08-01T00:50:26.160Z,0
2017-08-01T00:50:52.312Z,0
2017-08-01T00:51:18.454Z,0
2017-08-01T00:51:44.564Z,0
2017-08-01T00:52:10.693Z,0
2017-08-01T00:52:36.868Z,0
2017-08-01T00:53:02.996Z,0
2017-08-01T00:53:29.184Z,0
2017-08-01T00:53:55.334Z,0
2017-08-01T00:54:21.495Z,0
2017-08-01T00:54:47.673Z,0
2017-08-01T00:55:13.866Z,0
2017-08-01T00:55:39.999Z,0
2017-08-01T00:56:06.147Z,0
2017-08-01T00:56:32.379Z,0
2017-08-01T00:56:58.539Z,0
2017-08-01T00:57:24.686Z,0
2017-08-01T00:57:50.910Z,0
2017-08-01T00:58:17.116Z,0
2017-08-01T00:58:43.278Z,0
2017-08-01T00:59:09.447Z,0
2017-08-01T00:59:35.680Z,0
2017-08-01T01:00:01.869Z,0
2017-08-01T01:00:28.009Z,0
2017-08-01T01:00:54.152Z,0
2017-08-01T01:01:20.340Z,0
2017-08-01T01:01:46.484Z,0
2017-08-01T01:02:12.667Z,0
2017-08-01T01:02:38.832Z,0
2017-08-01T01:03:04.974Z,0
2017-08-01T01:03:31.164Z,0
2017-08-01T01:03:57.305Z,0
2017-08-01T01:04:23.486Z,0
2017-08-01T01:04:49.665Z,0
2017-08-01T01:05:15.779Z,0
2017-08-01T01:05:41.916Z,0
2017-08-01T01:06:08.043Z,0
2017-08-01T01:06:34.159Z,0
2017-08-01T01:07:00.297Z,0
2017-08-01T01:07:26.481Z,0
2017-08-01T01:07:52.597Z,0
2017-08-01T01:08:18.757Z,0
2017-08-01T01:08:44.900Z,0
2017-08-01T01:09:11.012Z,0
2017-08-01T01:09:37.140Z,0
2017-08-01T01:10:03.257Z,0
2017-08-01T01:10:29.395Z,0
2017-08-01T01:10:55.583Z,0
2017-08-01T01:11:21.765Z,0
2017-08-01T01:11:47.964Z,0
2017-08-01T01:12:14.107Z,0
2017-08-01T01:12:40.268Z,0
2017-08-01T01:13:06.497Z,0
2017-08-01T01:13:32.701Z,0
2017-08-01T01:13:58.886Z,0
2017-08-01T01:14:25.145Z,0
2017-08-01T01:14:51.347Z,0
2017-08-01T01:15:17.504Z,0
2017-08-01T01:15:43.703Z,0
2017-08-01T01:16:09.842Z,0
2017-08-01T01:16:36.023Z,0
2017-08-01T01:17:02.175Z,0
2017-08-01T01:17:28.342Z,0
2017-08-01T01:17:54.494Z,0
2017-08-01T01:18:20.644Z,0
2017-08-01T01:18:46.822Z,0
2017-08-01T01:19:12.989Z,0
2017-08-01T01:19:39.131Z,0
2017-08-01T01:20:05.323Z,0
2017-08-01T01:20:31.503Z,0
2017-08-01T01:20:57.671Z,0
2017-08-01T01:21:23.857Z,0
2017-08-01T01:21:50.008Z,0
2017-08-01T01:22:16.117Z,0
2017-08-01T01:22:42.328Z,0
2017-08-01T01:23:08.452Z,0
2017-08-01T01:23:34.625Z,0
2017-08-01T01:24:00.798Z,0
2017-08-01T01:24:26.945Z,0
2017-08-01T01:24:53.128Z,0
2017-08-01T01:25:19.251Z,0
2017-08-01T01:25:45.389Z,0
2017-08-01T01:26:11.569Z,0
2017-08-01T01:26:37.723Z,0
2017-08-01T01:27:03.831Z,0
2017-08-01T01:27:30.004Z,0
2017-08-01T01:27:56.191Z,0
2017-08-01T01:28:22.340Z,0
2017-08-01T01:28:48.511Z,0
2017-08-01T01:29:14.698Z,0
2017-08-01T01:29:40.873Z,0
2017-08-01T01:30:07.062Z,0
2017-08-01T01:30:33.250Z,0
2017-08-01T01:30:59.401Z,0
2017-08-01T01:31:25.580Z,0
2017-08-01T01:31:51.692Z,0
2017-08-01T01:32:17.807Z,0
2017-08-01T01:32:43.935Z,0
2017-08-01T01:33:10.075Z,0
2017-08-01T01:33:36.244Z,0
2017-08-01T01:34:02.372Z,0
2017-08-01T01:34:28.524Z,0
2017-08-01T01:34:54.632Z,0
2017-08-01T01:35:20.817Z,0
2017-08-01T01:35:46.951Z,0
2017-08-01T01:36:13.140Z,0
2017-08-01T01:36:39.315Z,0
2017-08-01T01:37:05.482Z,0
2017-08-01T01:37:31.738Z,0
2017-08-01T01:37:57.883Z,0
2017-08-01T01:38:24.020Z,0
2017-08-01T01:38:50.200Z,0
2017-08-01T01:39:16.354Z,0
2017-08-01T01:39:42.521Z,0
2017-08-01T01:40:08.670Z,0
2017-08-01T01:40:34.793Z,0
2017-08-01T01:41:00.934Z,0
2017-08-01T01:41:27.092Z,0
2017-08-01T01:41:53.251Z,0
2017-08-01T01:42:19.442Z,0
2017-08-01T01:42:45.561Z,0
2017-08-01T01:43:11.751Z,0
2017-08-01T01:43:37.899Z,0
2017-08-01T01:44:04.067Z,0
2017-08-01T01:44:30.253Z,0
2017-08-01T01:44:56.399Z,0
2017-08-01T01:45:22.558Z,0
2017-08-01T01:45:48.699Z,0
2017-08-01T01:46:14.890Z,0
2017-08-01T01:46:41.106Z,0
2017-08-01T01:47:07.258Z,0
2017-08-01T01:47:33.385Z,0
2017-08-01T01:47:59.524Z,0
2017-08-01T01:48:25.651Z,0
2017-08-01T01:48:51.802Z,0
2017-08-01T01:49:17.939Z,0
2017-08-01T01:49:44.054Z,0
2017-08-01T01:50:10.212Z,0
2017-08-01T01:50:36.392Z,0
2017-08-01T01:51:02.530Z,0
2017-08-01T01:51:28.758Z,0
2017-08-01T01:51:54.872Z,0
2017-08-01T01:52:21.085Z,0
2017-08-01T01:52:47.250Z,0
2017-08-01T01:53:13.369Z,0
2017-08-01T01:53:39.524Z,0
2017-08-01T01:54:05.700Z,0
2017-08-01T01:54:31.838Z,0
2017-08-01T01:54:57.967Z,0
2017-08-01T01:55:24.141Z,0
2017-08-01T01:55:50.251Z,0
2017-08-01T01:56:16.379Z,0
2017-08-01T01:56:42.503Z,0
2017-08-01T01:57:08.698Z,0
2017-08-01T01:57:34.845Z,0
2017-08-01T01:58:00.971Z,0
2017-08-01T01:58:27.137Z,0
2017-08-01T01:58:53.280Z,0
2017-08-01T01:59:19.435Z,0
2017-08-01T01:59:45.546Z,0
2017-08-01T02:00:11.720Z,0
2017-08-01T02:00:37.844Z,0
2017-08-01T02:01:04.022Z,0
2017-08-01T02:01:30.160Z,0
2017-08-01T02:01:56.316Z,0
2017-08-01T02:02:22.459Z,0
2017-08-01T02:02:48.567Z,0
2017-08-01T02:03:14.753Z,0
2017-08-01T02:03:40.929Z,0
2017-08-01T02:04:07.116Z,0
2017-08-01T02:04:33.261Z,0
2017-08-01T02:04:59.403Z,0
2017-08-01T02:05:25.619Z,0
2017-08-01T02:05:51.768Z,0
2017-08-01T02:06:17.932Z,0
2017-08-01T02:06:44.119Z,0
2017-08-01T02:07:10.298Z,0
2017-08-01T02:07:36.465Z,0
2017-08-01T02:08:02.613Z,0
2017-08-01T02:08:28.769Z,0
2017-08-01T02:08:54.912Z,0
2017-08-01T02:09:21.094Z,0
2017-08-01T02:09:47.292Z,0
2017-08-01T02:10:13.414Z,0
2017-08-01T02:10:39.568Z,0
2017-08-01T02:11:05.709Z,0
2017-08-01T02:11:31.833Z,0
2017-08-01T02:11:57.987Z,0
2017-08-01T02:12:24.125Z,0
2017-08-01T02:12:50.271Z,0
2017-08-01T02:13:16.430Z,0
2017-08-01T02:13:42.565Z,0
2017-08-01T02:14:08.716Z,0
2017-08-01T02:14:34.886Z,0
2017-08-01T02:15:01.075Z,0
2017-08-01T02:15:27.297Z,0
2017-08-01T02:15:53.435Z,0
2017-08-01T02:16:19.549Z,0
2017-08-01T02:16:45.764Z,0
2017-08-01T02:17:11.902Z,0
2017-08-01T02:17:38.102Z,0
2017-08-01T02:18:04.318Z,0
2017-08-01T02:18:30.521Z,0
2017-08-01T02:18:56.686Z,0
2017-08-01T02:19:22.901Z,0
2017-08-01T02:19:49.048Z,0
2017-08-01T02:20:15.257Z,0
2017-08-01T02:20:41.431Z,0
2017-08-01T02:21:07.633Z,0
2017-08-01T02:21:33.853Z,0
2017-08-01T02:22:00.029Z,0
2017-08-01T02:22:26.136Z,0
2017-08-01T02:22:52.301Z,0
2017-08-01T02:23:18.417Z,0
2017-08-01T02:23:44.585Z,0
2017-08-01T02:24:10.767Z,0
2017-08-01T02:24:36.918Z,0
2017-08-01T02:25:03.114Z,0
2017-08-01T02:25:29.313Z,0
2017-08-01T02:25:55.455Z,0
2017-08-01T02:26:21.580Z,0
2017-08-01T02:26:47.760Z,0
2017-08-01T02:27:13.869Z,0
2017-08-01T02:27:40.062Z,0
2017-08-01T02:28:06.212Z,0
2017-08-01T02:28:32.376Z,0
2017-08-01T02:28:58.553Z,0
2017-08-01T02:29:24.744Z,0
2017-08-01T02:29:50.885Z,0
2017-08-01T02:30:17.037Z,0
2017-08-01T02:30:43.289Z,0
2017-08-01T02:31:09.485Z,0
2017-08-01T02:31:35.672Z,0
2017-08-01T02:32:01.868Z,0
2017-08-01T02:32:28.055Z,0
2017-08-01T02:32:54.239Z,0
2017-08-01T02:33:20.377Z,0
2017-08-01T02:33:46.552Z,0
2017-08-01T02:34:12.745Z,0
2017-08-01T02:34:38.910Z,0
2017-08-01T02:35:05.030Z,0
2017-08-01T02:35:31.217Z,0
2017-08-01T02:35:57.457Z,0
2017-08-01T02:36:23.647Z,0
2017-08-01T02:36:49.799Z,0
2017-08-01T02:37:16.096Z,0
2017-08-01T02:37:42.312Z,0
2017-08-01T02:38:08.484Z,0
2017-08-01T02:38:34.686Z,0
2017-08-01T02:39:00.874Z,0
2017-08-01T02:39:27.017Z,0
2017-08-01T02:39:53.212Z,0
2017-08-01T02:40:19.427Z,0
2017-08-01T02:40:45.578Z,0
2017-08-01T02:41:11.744Z,0
2017-08-01T02:41:37.905Z,0
2017-08-01T02:42:04.087Z,0
2017-08-01T02:42:30.233Z,0
2017-08-01T02:42:56.411Z,0
2017-08-01T02:43:22.599Z,0
2017-08-01T02:43:48.766Z,0
2017-08-01T02:44:14.941Z,0
2017-08-01T02:44:41.128Z,0
2017-08-01T02:45:07.266Z,0
2017-08-01T02:45:33.440Z,0
2017-08-01T02:45:59.630Z,0
2017-08-01T02:46:25.770Z,0
2017-08-01T02:46:51.940Z,0
2017-08-01T02:47:18.158Z,0
2017-08-01T02:47:44.367Z,0
2017-08-01T02:48:10.573Z,0
2017-08-01T02:48:36.683Z,0
2017-08-01T02:49:02.853Z,0
2017-08-01T02:49:29.048Z,0
2017-08-01T02:49:55.142Z,0
2017-08-01T02:50:21.256Z,0
2017-08-01T02:50:47.394Z,0
2017-08-01T02:51:13.603Z,0
2017-08-01T02:51:39.793Z,0
2017-08-01T02:52:05.929Z,0
2017-08-01T02:52:32.087Z,0
2017-08-01T02:52:58.226Z,0
2017-08-01T02:53:24.381Z,0
2017-08-01T02:53:50.526Z,0
2017-08-01T02:54:16.717Z,0
2017-08-01T02:54:42.868Z,0
2017-08-01T02:55:09.030Z,0
2017-08-01T02:55:35.135Z,0
2017-08-01T02:56:01.263Z,0
2017-08-01T02:56:27.427Z,0
2017-08-01T02:56:53.554Z,0
2017-08-01T02:57:19.688Z,0
2017-08-01T02:57:45.799Z,0
2017-08-01T02:58:11.951Z,0
2017-08-01T02:58:38.112Z,0
2017-08-01T02:59:04.254Z,0
2017-08-01T02:59:30.359Z,0
2017-08-01T02:59:56.452Z,0
2017-08-01T03:00:22.681Z,0
2017-08-01T03:00:48.817Z,0
2017-08-01T03:01:14.984Z,0
2017-08-01T03:01:41.113Z,0
2017-08-01T03:02:07.302Z,0
2017-08-01T03:02:33.413Z,0
2017-08-01T03:02:59.534Z,0
2017-08-01T03:03:25.696Z,0
2017-08-01T03:03:51.789Z,0
2017-08-01T03:04:17.931Z,0
2017-08-01T03:04:44.058Z,0
2017-08-01T03:05:10.187Z,0
2017-08-01T03:05:36.374Z,0
2017-08-01T03:06:02.539Z,0
2017-08-01T03:06:28.687Z,0
2017-08-01T03:06:54.873Z,0
2017-08-01T03:07:20.991Z,0
2017-08-01T03:07:47.105Z,0
2017-08-01T03:08:13.215Z,0
2017-08-01T03:08:39.337Z,0
2017-08-01T03:09:05.429Z,0
2017-08-01T03:09:31.613Z,0
2017-08-01T03:09:57.739Z,0
2017-08-01T03:10:23.889Z,0
2017-08-01T03:10:49.983Z,0
2017-08-01T03:11:16.148Z,0
2017-08-01T03:11:42.256Z,0
2017-08-01T03:12:08.388Z,0
2017-08-01T03:12:34.948Z,0
2017-08-01T03:13:01.082Z,0
2017-08-01T03:13:27.210Z,0
2017-08-01T03:13:53.324Z,0
2017-08-01T03:14:19.479Z,0
2017-08-01T03:14:45.641Z,0
2017-08-01T03:15:11.778Z,0
2017-08-01T03:15:37.902Z,0
2017-08-01T03:16:04.077Z,0
2017-08-01T03:16:30.258Z,4
2017-08-01T03:16:56.468Z,4
2017-08-01T03:17:22.583Z,4
2017-08-01T03:17:48.709Z,4
2017-08-01T03:18:14.871Z,4
2017-08-01T03:18:41.032Z,4
2017-08-01T03:19:07.178Z,4
2017-08-01T03:19:33.313Z,4
2017-08-01T03:19:59.458Z,0
2017-08-01T03:20:25.606Z,0
2017-08-01T03:20:51.766Z,4
2017-08-01T03:21:17.889Z,4
2017-08-01T03:21:44.050Z,4
2017-08-01T03:22:10.159Z,4
2017-08-01T03:22:36.256Z,4
2017-08-01T03:23:02.446Z,4
2017-08-01T03:23:28.589Z,8
2017-08-01T03:23:54.761Z,8
2017-08-01T03:24:20.973Z,4
2017-08-01T03:24:47.092Z,4
2017-08-01T03:25:13.182Z,8
2017-08-01T03:25:39.372Z,8
2017-08-01T03:26:05.492Z,8
2017-08-01T03:26:31.657Z,8
2017-08-01T03:26:57.765Z,8
2017-08-01T03:27:23.891Z,8
2017-08-01T03:27:50.054Z,12
2017-08-01T03:28:16.206Z,12
2017-08-01T03:28:42.395Z,12
2017-08-01T03:29:08.533Z,12
2017-08-01T03:29:34.655Z,12
2017-08-01T03:30:00.788Z,16
2017-08-01T03:30:27.005Z,12
2017-08-01T03:30:53.174Z,16
2017-08-01T03:31:19.365Z,16
2017-08-01T03:31:45.485Z,16
2017-08-01T03:32:11.650Z,16
2017-08-01T03:32:37.804Z,20
2017-08-01T03:33:03.903Z,20
2017-08-01T03:33:30.062Z,20
2017-08-01T03:33:56.204Z,20
2017-08-01T03:34:22.348Z,24
2017-08-01T03:34:48.480Z,24
2017-08-01T03:35:14.574Z,24
2017-08-01T03:35:40.735Z,28
2017-08-01T03:36:06.872Z,28
2017-08-01T03:36:33.051Z,32
2017-08-01T03:36:59.166Z,32
2017-08-01T03:37:25.354Z,32
2017-08-01T03:37:51.480Z,32
2017-08-01T03:38:17.633Z,36
2017-08-01T03:38:43.781Z,36
2017-08-01T03:39:09.917Z,40
2017-08-01T03:39:36.055Z,36
2017-08-01T03:40:02.178Z,40
2017-08-01T03:40:28.317Z,40
2017-08-01T03:40:54.430Z,44
2017-08-01T03:41:20.578Z,44
2017-08-01T03:41:46.715Z,48
2017-08-01T03:42:12.845Z,48
2017-08-01T03:42:38.978Z,52
2017-08-01T03:43:05.444Z,52
2017-08-01T03:43:31.569Z,56
2017-08-01T03:43:57.713Z,56
2017-08-01T03:44:23.845Z,64
2017-08-01T03:44:49.971Z,64
2017-08-01T03:45:16.111Z,68
2017-08-01T03:45:42.238Z,72
2017-08-01T03:46:08.343Z,76
2017-08-01T03:46:34.480Z,76
2017-08-01T03:47:00.605Z,80
2017-08-01T03:47:26.711Z,84
2017-08-01T03:47:52.851Z,88
2017-08-01T03:48:19.000Z,92
2017-08-01T03:48:45.135Z,96
2017-08-01T03:49:11.231Z,96
2017-08-01T03:49:37.364Z,100
2017-08-01T03:50:03.451Z,104
2017-08-01T03:50:29.553Z,108
2017-08-01T03:50:55.739Z,112
2017-08-01T03:51:21.860Z,116
2017-08-01T03:51:47.979Z,116
2017-08-01T03:52:14.141Z,124
2017-08-01T03:52:40.232Z,128
2017-08-01T03:53:06.347Z,132
2017-08-01T03:53:32.480Z,136
2017-08-01T03:53:58.658Z,140
2017-08-01T03:54:24.773Z,144
2017-08-01T03:54:50.881Z,148
2017-08-01T03:55:16.999Z,152
2017-08-01T03:55:43.135Z,160
2017-08-01T03:56:09.283Z,160
2017-08-01T03:56:35.426Z,168
2017-08-01T03:57:01.562Z,172
2017-08-01T03:57:27.772Z,180
2017-08-01T03:57:53.910Z,184
2017-08-01T03:58:20.044Z,192
2017-08-01T03:58:46.199Z,196
2017-08-01T03:59:12.337Z,204
2017-08-01T03:59:38.465Z,212
2017-08-01T04:00:04.622Z,216
2017-08-01T04:00:30.791Z,220
2017-08-01T04:00:56.889Z,228
2017-08-01T04:01:23.055Z,232
2017-08-01T04:01:49.188Z,240
2017-08-01T04:02:15.314Z,248
2017-08-01T04:02:41.429Z,252
2017-08-01T04:03:07.532Z,264
2017-08-01T04:03:33.712Z,272
2017-08-01T04:03:59.832Z,280
2017-08-01T04:04:25.957Z,288
2017-08-01T04:04:52.090Z,300
2017-08-01T04:05:18.232Z,316
2017-08-01T04:05:44.378Z,328
2017-08-01T04:06:10.476Z,340
2017-08-01T04:06:36.604Z,356
2017-08-01T04:07:02.709Z,376
2017-08-01T04:07:28.850Z,396
2017-08-01T04:07:55.004Z,420
2017-08-01T04:08:21.191Z,444
2017-08-01T04:08:47.309Z,468
2017-08-01T04:09:13.457Z,500
2017-08-01T04:09:39.616Z,532
2017-08-01T04:10:05.739Z,564
2017-08-01T04:10:31.900Z,600
2017-08-01T04:10:58.065Z,640
2017-08-01T04:11:24.192Z,676
2017-08-01T04:11:50.354Z,712
2017-08-01T04:12:16.484Z,752
2017-08-01T04:12:42.586Z,788
2017-08-01T04:13:08.701Z,824
2017-08-01T04:13:34.829Z,856
2017-08-01T04:14:00.964Z,888
2017-08-01T04:14:27.078Z,912
2017-08-01T04:14:53.200Z,940
2017-08-01T04:15:19.361Z,960
2017-08-01T04:15:45.478Z,980
2017-08-01T04:16:11.647Z,996
2017-08-01T04:16:37.809Z,1008
2017-08-01T04:17:03.930Z,1020
2017-08-01T04:17:30.089Z,1028
2017-08-01T04:17:56.228Z,1044
2017-08-01T04:18:22.400Z,1060
2017-08-01T04:18:48.507Z,1068
2017-08-01T04:19:14.626Z,1084
2017-08-01T04:19:40.771Z,1100
2017-08-01T04:20:06.905Z,1116
2017-08-01T04:20:33.054Z,1140
2017-08-01T04:20:59.219Z,1164
2017-08-01T04:21:25.382Z,1192
2017-08-01T04:21:51.562Z,1216
2017-08-01T04:22:17.702Z,1244
2017-08-01T04:22:43.861Z,1272
2017-08-01T04:23:10.005Z,1300
2017-08-01T04:23:36.164Z,1328
2017-08-01T04:24:02.313Z,1356
2017-08-01T04:24:28.451Z,1388
2017-08-01T04:24:54.585Z,1420
2017-08-01T04:25:20.710Z,1460
2017-08-01T04:25:46.824Z,1504
2017-08-01T04:26:12.931Z,1556
2017-08-01T04:26:39.142Z,1612
2017-08-01T04:27:05.280Z,1680
2017-08-01T04:27:31.438Z,1760
2017-08-01T04:27:57.542Z,1844
2017-08-01T04:28:23.687Z,1932
2017-08-01T04:28:49.839Z,2028
2017-08-01T04:29:15.930Z,2136
2017-08-01T04:29:42.065Z,2244
2017-08-01T04:30:08.220Z,2360
2017-08-01T04:30:34.336Z,2484
2017-08-01T04:31:00.469Z,2608
2017-08-01T04:31:26.656Z,2732
2017-08-01T04:31:52.743Z,2856
2017-08-01T04:32:18.894Z,2980
2017-08-01T04:32:44.997Z,3108
2017-08-01T04:33:11.169Z,3244
2017-08-01T04:33:37.291Z,3400
2017-08-01T04:34:03.397Z,3552
2017-08-01T04:34:29.514Z,3684
2017-08-01T04:34:55.652Z,3780
2017-08-01T04:35:21.844Z,3832
2017-08-01T04:35:47.940Z,3836
2017-08-01T04:36:14.057Z,3808
2017-08-01T04:36:40.317Z,3748
2017-08-01T04:37:06.414Z,3684
2017-08-01T04:37:32.552Z,3592
2017-08-01T04:37:58.734Z,3520
2017-08-01T04:38:24.868Z,3460
2017-08-01T04:38:50.952Z,3432
2017-08-01T04:39:17.097Z,3436
2017-08-01T04:39:43.214Z,3468
2017-08-01T04:40:09.345Z,3536
2017-08-01T04:40:35.445Z,3640
2017-08-01T04:41:01.560Z,3772
2017-08-01T04:41:27.713Z,3940
2017-08-01T04:41:53.846Z,4144
2017-08-01T04:42:20.009Z,4388
2017-08-01T04:42:46.134Z,4652
2017-08-01T04:43:12.293Z,4940
2017-08-01T04:43:38.811Z,5236
2017-08-01T04:44:04.934Z,5528
2017-08-01T04:44:31.091Z,5816
2017-08-01T04:44:57.243Z,6092
2017-08-01T04:45:23.425Z,6344
2017-08-01T04:45:49.511Z,6576
2017-08-01T04:46:15.711Z,6796
2017-08-01T04:46:41.818Z,6980
2017-08-01T04:47:07.959Z,7116
2017-08-01T04:47:34.058Z,7220
2017-08-01T04:48:00.248Z,7272
2017-08-01T04:48:26.344Z,7260
2017-08-01T04:48:52.484Z,7196
2017-08-01T04:49:18.618Z,7104
2017-08-01T04:49:44.717Z,6940
2017-08-01T04:50:10.833Z,6756
2017-08-01T04:50:36.989Z,6564
2017-08-01T04:51:03.107Z,6360
2017-08-01T04:51:29.264Z,6160
2017-08-01T04:51:55.360Z,5968
2017-08-01T04:52:21.523Z,5772
2017-08-01T04:52:47.661Z,5592
2017-08-01T04:53:13.760Z,5444
2017-08-01T04:53:39.872Z,5296
2017-08-01T04:54:06.028Z,5176
2017-08-01T04:54:32.154Z,5084
2017-08-01T04:54:58.269Z,5020
2017-08-01T04:55:24.450Z,4968
2017-08-01T04:55:50.555Z,4940
2017-08-01T04:56:16.695Z,4928
2017-08-01T04:56:42.820Z,4932
2017-08-01T04:57:08.981Z,4956
2017-08-01T04:57:35.097Z,4992
2017-08-01T04:58:01.197Z,5032
2017-08-01T04:58:27.333Z,5080
2017-08-01T04:58:53.477Z,5128
2017-08-01T04:59:19.595Z,5184
2017-08-01T04:59:45.703Z,5248
2017-08-01T05:00:11.856Z,5316
2017-08-01T05:00:37.946Z,5384
2017-08-01T05:01:04.108Z,5448
2017-08-01T05:01:30.237Z,5516
2017-08-01T05:01:56.382Z,5592
2017-08-01T05:02:22.560Z,5672
2017-08-01T05:02:48.699Z,5760
2017-08-01T05:03:14.836Z,5860
2017-08-01T05:03:40.990Z,5960
2017-08-01T05:04:07.082Z,6052
2017-08-01T05:04:33.449Z,6132
2017-08-01T05:04:59.616Z,6212
2017-08-01T05:05:25.736Z,6292
2017-08-01T05:05:51.861Z,6368
2017-08-01T05:06:18.022Z,6428
2017-08-01T05:06:44.142Z,6484
2017-08-01T05:07:10.242Z,6508
2017-08-01T05:07:36.364Z,6564
2017-08-01T05:08:02.495Z,6624
2017-08-01T05:08:28.624Z,6680
2017-08-01T05:08:54.768Z,6740
2017-08-01T05:09:20.896Z,6804
2017-08-01T05:09:47.033Z,6880
2017-08-01T05:10:13.197Z,6952
2017-08-01T05:10:39.349Z,7032
2017-08-01T05:11:05.536Z,7116
2017-08-01T05:11:31.628Z,7196
2017-08-01T05:11:57.747Z,7292
2017-08-01T05:12:23.883Z,7392
2017-08-01T05:12:49.979Z,7504
2017-08-01T05:13:16.162Z,7612
2017-08-01T05:13:42.603Z,7712
2017-08-01T05:14:08.708Z,7792
2017-08-01T05:14:34.871Z,7852
2017-08-01T05:15:01.039Z,7884
2017-08-01T05:15:27.185Z,7928
2017-08-01T05:15:53.349Z,8004
2017-08-01T05:16:19.522Z,7928
2017-08-01T05:16:45.642Z,7856
2017-08-01T05:17:11.805Z,7852
2017-08-01T05:17:37.902Z,7928
2017-08-01T05:18:03.993Z,7940
2017-08-01T05:18:30.178Z,7968
2017-08-01T05:18:56.342Z,8140
2017-08-01T05:19:22.507Z,8376
2017-08-01T05:19:48.602Z,8536
2017-08-01T05:20:14.694Z,8640
2017-08-01T05:20:40.864Z,8768
2017-08-01T05:21:06.990Z,8888
2017-08-01T05:21:33.108Z,8968
2017-08-01T05:21:59.216Z,9068
2017-08-01T05:22:25.372Z,9200
2017-08-01T05:22:51.510Z,9312
2017-08-01T05:23:17.638Z,9480
2017-08-01T05:23:43.774Z,9608
2017-08-01T05:24:09.943Z,9688
2017-08-01T05:24:36.042Z,9768
2017-08-01T05:25:02.159Z,9816
2017-08-01T05:25:28.343Z,9836
2017-08-01T05:25:54.471Z,9832
2017-08-01T05:26:20.588Z,9784
2017-08-01T05:26:46.743Z,9692
2017-08-01T05:27:12.876Z,9536
2017-08-01T05:27:38.990Z,9392
2017-08-01T05:28:05.137Z,9220
2017-08-01T05:28:31.245Z,8932
2017-08-01T05:28:57.414Z,8676
2017-08-01T05:29:23.512Z,8472
2017-08-01T05:29:49.608Z,8360
2017-08-01T05:30:15.764Z,8272
2017-08-01T05:30:41.871Z,8200
2017-08-01T05:31:07.986Z,8172
2017-08-01T05:31:34.110Z,8160
2017-08-01T05:32:00.219Z,8144
2017-08-01T05:32:26.361Z,8156
2017-08-01T05:32:52.482Z,8168
2017-08-01T05:33:18.617Z,8248
2017-08-01T05:33:44.763Z,8404
2017-08-01T05:34:10.854Z,8532
2017-08-01T05:34:37.019Z,8500
2017-08-01T05:35:03.143Z,8424
2017-08-01T05:35:29.247Z,8376
2017-08-01T05:35:55.376Z,8348
2017-08-01T05:36:21.486Z,8284
2017-08-01T05:36:47.650Z,8180
2017-08-01T05:37:13.744Z,8080
2017-08-01T05:37:39.837Z,7956
2017-08-01T05:38:06.054Z,7856
2017-08-01T05:38:32.177Z,7764
2017-08-01T05:38:58.293Z,7696
2017-08-01T05:39:24.427Z,7640
2017-08-01T05:39:50.526Z,7640
2017-08-01T05:40:16.669Z,7772
2017-08-01T05:40:42.823Z,7904
2017-08-01T05:41:08.986Z,7936
2017-08-01T05:41:35.127Z,7860
2017-08-01T05:42:01.248Z,7736
2017-08-01T05:42:27.410Z,7748
2017-08-01T05:42:53.532Z,7812
2017-08-01T05:43:19.661Z,7912
2017-08-01T05:43:45.840Z,8056
2017-08-01T05:44:12.308Z,8244
2017-08-01T05:44:38.469Z,8364
2017-08-01T05:45:04.580Z,8400
2017-08-01T05:45:30.731Z,8448
2017-08-01T05:45:56.870Z,8424
2017-08-01T05:46:23.002Z,8496
2017-08-01T05:46:49.120Z,8612
2017-08-01T05:47:15.256Z,8672
2017-08-01T05:47:41.378Z,8696
2017-08-01T05:48:07.466Z,8692
2017-08-01T05:48:33.635Z,8712
2017-08-01T05:48:59.786Z,8716
2017-08-01T05:49:25.926Z,8628
2017-08-01T05:49:52.058Z,8616
2017-08-01T05:50:18.185Z,8612
2017-08-01T05:50:44.285Z,8492
2017-08-01T05:51:10.481Z,8416
2017-08-01T05:51:36.613Z,8452
2017-08-01T05:52:02.783Z,8520
2017-08-01T05:52:28.907Z,8472
2017-08-01T05:52:55.022Z,8656
2017-08-01T05:53:21.158Z,8680
2017-08-01T05:53:47.257Z,8688
2017-08-01T05:54:13.396Z,8628
2017-08-01T05:54:39.552Z,8536
2017-08-01T05:55:05.717Z,8536
2017-08-01T05:55:31.906Z,8556
2017-08-01T05:55:58.057Z,8540
2017-08-01T05:56:24.244Z,8540
2017-08-01T05:56:50.364Z,8472
2017-08-01T05:57:16.509Z,8436
2017-08-01T05:57:42.605Z,8376
2017-08-01T05:58:08.734Z,8304
2017-08-01T05:58:34.867Z,8312
2017-08-01T05:59:00.976Z,8448
2017-08-01T05:59:27.102Z,8476
2017-08-01T05:59:53.262Z,8432
2017-08-01T06:00:19.381Z,8468
2017-08-01T06:00:45.473Z,8392
2017-08-01T06:01:11.663Z,8280
2017-08-01T06:01:37.813Z,8188
2017-08-01T06:02:03.925Z,8032
2017-08-01T06:02:30.112Z,7856
2017-08-01T06:02:56.268Z,7704
2017-08-01T06:03:22.476Z,7676
2017-08-01T06:03:48.588Z,7688
2017-08-01T06:04:14.712Z,7616
2017-08-01T06:04:40.899Z,7556
2017-08-01T06:05:07.043Z,7516
2017-08-01T06:05:33.184Z,7516
2017-08-01T06:05:59.322Z,7468
2017-08-01T06:06:25.474Z,7468
2017-08-01T06:06:51.642Z,7452
2017-08-01T06:07:17.775Z,7372
2017-08-01T06:07:43.874Z,7368
2017-08-01T06:08:09.992Z,7248
2017-08-01T06:08:36.122Z,7232
2017-08-01T06:09:02.241Z,7260
2017-08-01T06:09:28.378Z,7280
2017-08-01T06:09:54.504Z,7288
2017-08-01T06:10:20.621Z,7256
2017-08-01T06:10:46.780Z,7352
2017-08-01T06:11:12.909Z,7368